Time;durP1;ratioP1;P1;durP2;ratioP2;P2;SDS_P1;SDS_P2;PMS_P1;PMS_P2;Temp;Humidity;BMP_temperature;BMP_pressure;BME280_temperature;BME280_humidity;BME280_pressure;Samples;Min_cycle;Max_cycle;Signal;HPM_P1;HPM_P2
2021/07/21 00:00:41;;;;;;;12.88;7.50;;;;;;;17.02;63.29;97684.09;5037464;28;20111;-78
2021/07/21 00:03:06;;;;;;;10.88;7.63;;;;;;;17.15;63.13;97681.91;5040645;28;20553;-78
2021/07/21 00:05:33;;;;;;;14.63;7.85;;;;;;;17.10;63.36;97685.38;5068577;28;20048;-78
2021/07/21 00:07:59;;;;;;;11.95;7.90;;;;;;;17.12;63.11;97693.75;5040859;28;20024;-78
2021/07/21 00:10:26;;;;;;;12.27;7.40;;;;;;;16.97;63.31;97686.75;5052737;28;20056;-78
2021/07/21 00:15:40;;;;;;;11.63;7.43;;;;;;;16.73;63.51;97685.81;5072440;28;20446;-78
2021/07/21 00:18:19;;;;;;;10.98;7.10;;;;;;;16.56;64.01;97696.69;5058163;28;20115;-78
2021/07/21 00:20:47;;;;;;;9.63;6.75;;;;;;;16.65;63.82;97690.56;5060482;28;20024;-78
2021/07/21 00:23:13;;;;;;;12.13;7.53;;;;;;;16.68;63.40;97694.50;5075313;28;20028;-78
2021/07/21 00:25:38;;;;;;;11.75;8.15;;;;;;;16.76;63.74;97693.16;5041489;28;20035;-78
2021/07/21 00:28:04;;;;;;;10.50;7.28;;;;;;;16.76;63.47;97695.78;5069690;28;20448;-78
2021/07/21 00:30:29;;;;;;;10.88;7.95;;;;;;;16.76;63.62;97695.78;5070216;28;20115;-78
2021/07/21 00:32:57;;;;;;;10.73;7.28;;;;;;;16.64;64.01;97675.88;5054554;28;20413;-78
2021/07/21 00:35:22;;;;;;;10.70;7.50;;;;;;;16.76;63.61;97686.06;5092069;28;20032;-78
2021/07/21 00:37:48;;;;;;;12.27;7.35;;;;;;;16.72;63.91;97685.00;5057531;28;20494;-78
2021/07/21 00:40:16;;;;;;;9.88;7.18;;;;;;;16.62;63.79;97678.00;5071491;28;20032;-78
2021/07/21 00:42:41;;;;;;;11.93;7.70;;;;;;;16.61;64.10;97679.03;5053304;28;20375;-78
2021/07/21 00:45:08;;;;;;;10.98;7.18;;;;;;;16.64;63.91;97677.72;5074257;28;20077;-78
2021/07/21 00:47:33;;;;;;;11.88;7.70;;;;;;;16.67;64.38;97670.06;5057518;28;20036;-78
2021/07/21 00:49:59;;;;;;;12.77;7.57;;;;;;;16.68;64.67;97676.09;5073531;28;20024;-78
2021/07/21 00:52:24;;;;;;;13.18;8.73;;;;;;;16.63;64.33;97676.91;5040562;28;20151;-78
2021/07/21 00:54:49;;;;;;;11.38;8.20;;;;;;;16.67;63.62;97677.16;5074381;28;20055;-78
2021/07/21 00:57:16;;;;;;;12.48;7.40;;;;;;;16.68;63.20;97681.38;5057382;28;20522;-78
2021/07/21 00:59:42;;;;;;;10.50;7.03;;;;;;;16.75;63.49;97673.19;5066203;28;20059;-78
2021/07/21 01:02:07;;;;;;;10.45;6.88;;;;;;;16.69;63.77;97664.53;5055187;28;20055;-79
2021/07/21 01:04:35;;;;;;;14.88;8.30;;;;;;;16.68;64.11;97686.63;5066961;22;20140;-77
2021/07/21 01:07:02;;;;;;;12.38;8.68;;;;;;;16.67;64.05;97683.22;5030764;28;20033;-77
2021/07/21 01:09:28;;;;;;;12.32;7.35;;;;;;;16.65;63.89;97674.03;4996633;28;20472;-77
2021/07/21 01:11:58;;;;;;;11.57;8.13;;;;;;;16.67;64.28;97675.34;5015974;28;20025;-77
2021/07/21 01:14:36;;;;;;;11.70;7.80;;;;;;;16.43;64.85;97674.38;5014161;28;20502;-77
2021/07/21 01:17:08;;;;;;;12.88;8.30;;;;;;;16.46;64.85;97668.59;5016010;28;20029;-77
2021/07/21 01:19:51;;;;;;;11.50;7.80;;;;;;;16.36;65.02;97682.56;5032219;28;20301;-77
2021/07/21 01:22:18;;;;;;;10.90;7.85;;;;;;;16.53;65.21;97679.59;5050071;28;20029;-76
2021/07/21 01:24:57;;;;;;;10.55;7.70;;;;;;;16.42;65.31;97678.09;5031995;28;20028;-77
2021/07/21 01:27:38;;;;;;;11.60;7.68;;;;;;;16.42;65.53;97675.47;5032372;28;20067;-77
2021/07/21 01:30:11;;;;;;;13.98;7.93;;;;;;;16.39;64.82;97678.63;4999302;28;20502;-77
2021/07/21 01:32:39;;;;;;;11.95;7.50;;;;;;;16.46;64.96;97673.84;5031986;28;20083;-77
2021/07/21 01:35:09;;;;;;;9.77;7.35;;;;;;;16.41;64.85;97673.88;5013205;28;20044;-77
2021/07/21 01:37:38;;;;;;;13.20;8.68;;;;;;;16.31;65.09;97673.91;5040746;28;20029;-77
2021/07/21 01:40:06;;;;;;;11.82;8.50;;;;;;;16.32;64.61;97676.28;5032041;28;20098;-78
2021/07/21 01:42:34;;;;;;;10.25;7.30;;;;;;;16.21;64.58;97680.78;5015144;28;20136;-78
2021/07/21 01:45:00;;;;;;;11.50;7.70;;;;;;;16.18;64.59;97673.44;5015276;28;20478;-78
2021/07/21 01:47:27;;;;;;;11.45;7.68;;;;;;;16.16;64.87;97670.28;5031820;28;20108;-77
2021/07/21 01:49:53;;;;;;;11.90;7.38;;;;;;;16.19;65.07;97672.38;5025372;28;20038;-77
2021/07/21 01:52:24;;;;;;;12.00;8.23;;;;;;;16.08;65.36;97676.09;5031788;28;20103;-77
2021/07/21 01:54:55;;;;;;;14.13;7.82;;;;;;;16.20;65.50;97671.31;4998561;28;20025;-77
2021/07/21 01:57:21;;;;;;;12.15;7.75;;;;;;;16.31;65.33;97673.91;4998742;28;20028;-77
2021/07/21 01:59:47;;;;;;;12.13;7.97;;;;;;;16.32;65.39;97665.00;5031878;28;20107;-77
2021/07/21 02:02:13;;;;;;;11.43;8.02;;;;;;;16.31;64.58;97664.19;4998955;28;20497;-77
2021/07/21 02:04:39;;;;;;;13.10;8.30;;;;;;;16.35;64.28;97664.44;5008105;28;20064;-77
2021/07/21 02:07:09;;;;;;;12.80;7.63;;;;;;;16.25;64.47;97671.31;5022734;28;20069;-77
2021/07/21 02:09:36;;;;;;;11.32;7.07;;;;;;;16.37;64.13;97676.25;5031892;28;20036;-77
2021/07/21 02:12:02;;;;;;;10.55;7.75;;;;;;;16.28;64.47;97675.25;5047969;28;20119;-77
2021/07/21 02:14:28;;;;;;;10.73;7.85;;;;;;;16.31;64.04;97671.28;5031346;28;20128;-77
2021/07/21 02:16:55;;;;;;;10.73;7.82;;;;;;;16.27;63.96;97678.91;5048127;28;20033;-77
2021/07/21 02:19:21;;;;;;;12.25;7.53;;;;;;;16.23;64.58;97678.69;5064829;28;20062;-77
2021/07/21 02:21:46;;;;;;;11.00;7.55;;;;;;;16.18;64.61;97668.19;5031327;28;20119;-77
2021/07/21 02:24:12;;;;;;;12.07;7.72;;;;;;;16.21;64.81;97678.16;5030965;28;20421;-77
2021/07/21 02:26:39;;;;;;;9.85;7.00;;;;;;;16.09;64.37;97662.69;5014609;28;20036;-77
2021/07/21 02:29:05;;;;;;;12.20;7.45;;;;;;;16.11;64.45;97670.31;5064157;28;20395;-77
2021/07/21 02:31:35;;;;;;;11.50;7.32;;;;;;;15.99;64.69;97667.16;5004960;28;20114;-77
2021/07/21 02:34:03;;;;;;;11.77;7.38;;;;;;;16.05;64.84;97671.38;5013982;28;20627;-77
2021/07/21 02:36:31;;;;;;;10.43;6.60;;;;;;;16.00;64.92;97672.16;5039295;28;20483;-77
2021/07/21 02:38:57;;;;;;;11.35;7.32;;;;;;;16.03;65.30;97668.22;5040636;28;20121;-77
2021/07/21 02:41:22;;;;;;;10.85;7.35;;;;;;;16.02;65.29;97675.34;5052106;28;20037;-77
2021/07/21 02:43:48;;;;;;;11.15;7.60;;;;;;;15.93;65.49;97665.63;5023222;28;20052;-77
2021/07/21 02:46:14;;;;;;;11.32;7.80;;;;;;;15.95;65.34;97668.78;5014601;28;20040;-77
2021/07/21 02:48:43;;;;;;;12.20;7.68;;;;;;;15.77;65.71;97673.53;5047584;28;20337;-77
2021/07/21 02:51:14;;;;;;;13.35;8.23;;;;;;;15.69;65.78;97660.91;5013768;28;20428;-77
2021/07/21 02:53:40;;;;;;;11.98;7.88;;;;;;;15.66;65.25;97675.38;5046936;28;20051;-77
2021/07/21 02:56:08;;;;;;;10.43;7.38;;;;;;;15.64;65.23;97674.06;5040691;28;20045;-77
2021/07/21 02:58:40;;;;;;;12.27;7.10;;;;;;;15.47;64.97;97669.88;5030857;28;20040;-77
2021/07/21 03:01:05;;;;;;;10.20;7.75;;;;;;;15.53;64.80;97671.44;5047222;28;20025;-77
2021/07/21 03:03:33;;;;;;;11.65;7.03;;;;;;;15.38;65.14;97668.81;5022957;28;20166;-77
2021/07/21 03:06:03;;;;;;;10.50;6.97;;;;;;;15.31;65.85;97684.81;5050896;28;20033;-77
2021/07/21 03:08:29;;;;;;;12.77;7.85;;;;;;;15.35;66.04;97679.84;5041303;28;20056;-77
2021/07/21 03:10:57;;;;;;;11.65;7.38;;;;;;;15.31;65.85;97690.06;5040791;28;20033;-77
2021/07/21 03:13:29;;;;;;;12.27;7.93;;;;;;;15.29;65.98;97681.69;5028065;28;20111;-77
2021/07/21 03:15:55;;;;;;;13.20;8.75;;;;;;;15.38;66.04;97692.44;5026869;28;20609;-77
2021/07/21 03:18:23;;;;;;;10.90;8.20;;;;;;;15.29;66.18;97680.91;5030405;28;20119;-77
2021/07/21 03:20:49;;;;;;;12.15;8.38;;;;;;;15.26;65.83;97673.53;5023952;28;20514;-78
2021/07/21 03:23:15;;;;;;;12.98;8.02;;;;;;;15.26;66.25;97686.66;5030225;28;20200;-77
2021/07/21 03:25:42;;;;;;;13.13;8.40;;;;;;;15.23;66.13;97687.19;5047307;28;20149;-77
2021/07/21 03:28:08;;;;;;;11.40;7.15;;;;;;;15.31;66.36;97686.66;5046922;28;20025;-77
2021/07/21 03:30:35;;;;;;;10.75;7.55;;;;;;;15.26;66.71;97691.91;5046879;28;20032;-78
2021/07/21 03:33:03;;;;;;;11.98;7.60;;;;;;;15.26;66.65;97689.28;5023853;28;20443;-78
2021/07/21 03:35:31;;;;;;;12.27;7.75;;;;;;;15.22;67.06;97689.03;5023349;28;20025;-77
2021/07/21 03:37:58;;;;;;;12.73;7.60;;;;;;;15.26;66.95;97684.81;5039784;28;20040;-78
2021/07/21 03:40:25;;;;;;;14.38;8.55;;;;;;;15.23;67.58;97687.19;5040861;28;20034;-78
2021/07/21 03:42:52;;;;;;;15.05;7.80;;;;;;;15.24;67.62;97689.53;5050681;28;20021;-78
2021/07/21 03:45:18;;;;;;;12.90;7.85;;;;;;;15.28;67.33;97692.44;5061441;28;20025;-78
2021/07/21 03:47:43;;;;;;;13.65;8.18;;;;;;;15.34;67.25;97684.31;5036190;28;20044;-78
2021/07/21 03:50:11;;;;;;;12.98;8.52;;;;;;;15.33;67.38;97689.81;5021007;28;20049;-78
2021/07/21 03:52:39;;;;;;;11.10;7.47;;;;;;;15.32;67.58;97683.00;5026667;28;20041;-78
2021/07/21 03:55:05;;;;;;;12.35;8.15;;;;;;;15.41;66.99;97684.03;5027044;28;20094;-78
2021/07/21 03:57:31;;;;;;;11.57;7.85;;;;;;;15.43;66.71;97687.19;5029728;28;20087;-78
2021/07/21 03:59:57;;;;;;;12.50;8.38;;;;;;;15.50;66.40;97692.94;5030003;28;20475;-77
2021/07/21 04:02:24;;;;;;;10.63;7.05;;;;;;;15.46;66.66;97699.00;5042103;28;20087;-77
2021/07/21 04:04:51;;;;;;;11.80;8.15;;;;;;;15.50;66.21;97695.56;5049625;28;20041;-77
2021/07/21 04:07:17;;;;;;;14.02;8.05;;;;;;;15.50;66.60;97689.53;5043610;28;20040;-78
2021/07/21 04:09:46;;;;;;;12.95;7.45;;;;;;;15.40;66.31;97690.31;5033795;28;20033;-77
2021/07/21 04:12:13;;;;;;;13.23;8.25;;;;;;;15.42;66.61;97690.88;5033423;28;20029;-77
2021/07/21 04:14:42;;;;;;;12.13;8.57;;;;;;;15.42;66.13;97696.13;5050090;28;20043;-77
2021/07/21 04:17:10;;;;;;;13.05;7.97;;;;;;;15.42;66.23;97700.56;5033410;28;20032;-77
2021/07/21 04:19:37;;;;;;;16.30;8.05;;;;;;;15.48;66.31;97705.56;5033585;28;20039;-78
2021/07/21 04:22:03;;;;;;;11.20;7.50;;;;;;;15.60;66.07;97713.16;5066568;28;20029;-77
2021/07/21 04:24:29;;;;;;;12.63;7.63;;;;;;;15.67;66.01;97715.53;5049747;28;20037;-77
2021/07/21 04:26:56;;;;;;;12.02;8.27;;;;;;;15.68;65.89;97704.75;5033434;28;20041;-77
2021/07/21 04:29:24;;;;;;;11.73;6.50;;;;;;;15.69;65.83;97700.28;5010199;28;20451;-77
2021/07/21 04:31:50;;;;;;;11.10;7.00;;;;;;;15.77;65.63;97712.16;5057223;28;20741;-77
2021/07/21 04:34:16;;;;;;;10.38;7.85;;;;;;;15.74;65.68;97719.44;5042794;28;20029;-78
2021/07/21 04:36:42;;;;;;;11.75;7.13;;;;;;;15.77;65.51;97707.69;5047834;28;20051;-78
2021/07/21 04:39:08;;;;;;;10.60;7.30;;;;;;;15.81;65.61;97708.72;5049605;28;20112;-77
2021/07/21 04:41:34;;;;;;;10.70;7.07;;;;;;;15.89;65.55;97705.56;5042953;28;20040;-77
2021/07/21 04:44:03;;;;;;;9.38;7.35;;;;;;;15.90;65.08;97715.00;5026286;28;20071;-78
2021/07/21 04:46:31;;;;;;;10.15;6.78;;;;;;;15.97;64.73;97722.63;5066326;28;20523;-77
2021/07/21 04:48:56;;;;;;;10.77;7.13;;;;;;;16.05;64.97;97729.16;5059653;28;20029;-77
2021/07/21 04:51:22;;;;;;;12.00;7.13;;;;;;;16.01;64.84;97718.41;5032762;28;20108;-77
2021/07/21 04:53:53;;;;;;;11.60;7.13;;;;;;;15.90;64.79;97736.03;5015711;28;20375;-77
2021/07/21 04:56:18;;;;;;;10.98;7.05;;;;;;;16.10;64.61;97735.19;5027295;28;20029;-77
2021/07/21 04:58:43;;;;;;;11.10;7.20;;;;;;;16.14;64.69;97732.03;5015871;28;20033;-77
2021/07/21 05:01:11;;;;;;;8.35;6.97;;;;;;;16.15;64.48;97738.88;5022407;28;20033;-77
2021/07/21 05:03:37;;;;;;;10.32;7.47;;;;;;;16.28;64.03;97744.34;5064128;28;20391;-77
2021/07/21 05:06:02;;;;;;;10.00;6.70;;;;;;;16.31;64.35;97742.22;5049686;28;20090;-77
2021/07/21 05:08:27;;;;;;;8.73;6.35;;;;;;;16.38;64.31;97742.72;5025909;28;20375;-77
2021/07/21 05:10:53;;;;;;;11.75;6.93;;;;;;;16.39;63.89;97737.22;5049250;28;20375;-77
2021/07/21 05:13:19;;;;;;;10.88;7.07;;;;;;;16.39;63.90;97745.09;5023229;28;20503;-77
2021/07/21 05:15:47;;;;;;;9.48;6.70;;;;;;;16.46;63.78;97750.84;5038983;28;20041;-77
2021/07/21 05:18:12;;;;;;;9.35;6.60;;;;;;;16.48;63.80;97742.69;5049280;28;20037;-77
2021/07/21 05:20:38;;;;;;;10.80;6.63;;;;;;;16.49;63.93;97746.91;5032327;28;20483;-77
2021/07/21 05:23:04;;;;;;;9.25;6.82;;;;;;;16.56;64.08;97750.03;5028860;28;20028;-77
2021/07/21 05:25:29;;;;;;;10.10;6.72;;;;;;;16.61;63.93;97752.66;5040571;28;20029;-77
2021/07/21 05:27:55;;;;;;;11.43;6.95;;;;;;;16.65;64.07;97747.63;5048880;28;20163;-77
2021/07/21 05:30:20;;;;;;;9.23;6.75;;;;;;;16.69;64.08;97753.94;5050346;28;20116;-77
2021/07/21 05:32:47;;;;;;;9.40;6.68;;;;;;;16.82;63.71;97763.84;5032194;28;20017;-77
2021/07/21 05:35:13;;;;;;;10.45;6.32;;;;;;;16.97;63.41;97757.78;5032139;28;20044;-77
2021/07/21 05:37:39;;;;;;;9.80;6.78;;;;;;;16.97;63.18;97751.75;5046655;28;20025;-77
2021/07/21 05:40:05;;;;;;;8.80;6.63;;;;;;;17.09;62.74;97764.56;5048644;28;20427;-77
2021/07/21 05:42:31;;;;;;;10.75;6.68;;;;;;;17.03;63.06;97758.53;5048521;28;20110;-77
2021/07/21 05:44:57;;;;;;;12.82;7.30;;;;;;;17.09;62.52;97770.59;5029379;28;20480;-77
2021/07/21 05:47:22;;;;;;;8.93;6.45;;;;;;;17.21;62.52;97775.53;5041588;28;20127;-77
2021/07/21 05:49:47;;;;;;;9.10;6.43;;;;;;;17.22;62.42;97777.91;5015267;28;20476;-77
2021/07/21 05:52:13;;;;;;;9.30;6.60;;;;;;;17.34;62.48;97780.22;5048253;28;20463;-77
2021/07/21 05:54:40;;;;;;;9.60;6.43;;;;;;;17.29;62.43;97779.44;5008576;28;20033;-77
2021/07/21 05:57:06;;;;;;;9.20;6.32;;;;;;;17.34;62.25;97774.94;5048543;28;20036;-77
2021/07/21 05:59:32;;;;;;;10.90;6.72;;;;;;;17.39;62.30;97777.53;5041324;28;20032;-77
2021/07/21 06:01:57;;;;;;;9.00;6.20;;;;;;;17.45;61.99;97769.63;5024924;28;20033;-77
2021/07/21 06:04:23;;;;;;;8.45;6.35;;;;;;;17.52;62.08;97775.34;5040789;28;20133;-77
2021/07/21 06:06:49;;;;;;;8.75;6.00;;;;;;;17.76;61.93;97778.06;5043208;28;20120;-77
2021/07/21 06:09:15;;;;;;;10.15;7.28;;;;;;;17.83;61.19;97783.00;5031532;28;20025;-78
2021/07/21 06:11:41;;;;;;;8.73;5.82;;;;;;;17.80;60.83;97784.34;5048210;28;20029;-77
2021/07/21 06:14:06;;;;;;;8.70;6.00;;;;;;;17.98;60.78;97787.41;5048766;28;20112;-77
2021/07/21 06:16:32;;;;;;;10.85;6.45;;;;;;;18.06;60.33;97790.22;5048210;28;20032;-77
2021/07/21 06:18:58;;;;;;;7.50;5.63;;;;;;;18.10;59.82;97785.97;5031181;28;20091;-77
2021/07/21 06:21:25;;;;;;;8.75;5.47;;;;;;;18.09;59.96;97792.28;5030972;28;20123;-77
2021/07/21 06:23:51;;;;;;;9.02;5.65;;;;;;;18.40;59.74;97789.34;5030133;28;20035;-81
2021/07/21 06:26:16;;;;;;;8.68;6.63;;;;;;;18.47;58.88;97792.44;5047528;28;20524;-77
2021/07/21 06:28:42;;;;;;;6.75;5.32;;;;;;;18.72;58.93;97801.13;5047571;28;20029;-77
2021/07/21 06:31:08;;;;;;;7.65;6.05;;;;;;;19.14;57.75;97802.25;5046764;28;20101;-77
2021/07/21 06:33:33;;;;;;;8.50;5.70;;;;;;;19.15;57.07;97803.03;5006525;28;20376;-77
2021/07/21 06:35:59;;;;;;;9.30;5.63;;;;;;;19.42;56.89;97813.72;5041047;28;20556;-77
2021/07/21 06:38:24;;;;;;;7.80;6.03;;;;;;;19.53;56.54;97803.78;5021841;28;20570;-76
2021/07/21 06:40:50;;;;;;;8.48;5.82;;;;;;;19.64;56.42;97804.44;5031158;28;20382;-77
2021/07/21 06:43:15;;;;;;;6.38;4.95;;;;;;;19.80;55.24;97812.94;5030982;28;20177;-77
2021/07/21 06:45:42;;;;;;;7.10;5.70;;;;;;;20.04;55.34;97812.03;5014907;28;20131;-77
2021/07/21 06:48:09;;;;;;;6.90;5.63;;;;;;;20.32;53.76;97811.00;5040944;28;20141;-77
2021/07/21 06:50:35;;;;;;;9.88;6.18;;;;;;;20.63;53.95;97823.72;5034401;28;20033;-77
2021/07/21 06:53:02;;;;;;;7.10;5.30;;;;;;;20.96;52.87;97828.88;5013780;28;20032;-77
2021/07/21 06:55:28;;;;;;;7.00;5.18;;;;;;;21.19;52.53;97829.72;5030407;28;20056;-77
2021/07/21 06:57:54;;;;;;;5.60;4.95;;;;;;;21.24;51.70;97832.25;5058236;28;20475;-77
2021/07/21 07:00:19;;;;;;;7.65;5.25;;;;;;;21.55;51.34;97830.84;5030143;28;20032;-76
2021/07/21 07:02:45;;;;;;;7.18;5.55;;;;;;;21.67;50.19;97829.22;5018125;28;20033;-77
2021/07/21 07:05:11;;;;;;;7.05;4.97;;;;;;;21.89;50.85;97831.09;5007828;28;20087;-77
2021/07/21 07:07:36;;;;;;;7.07;5.28;;;;;;;21.64;50.16;97831.69;5042194;28;20041;-77
2021/07/21 07:10:03;;;;;;;6.00;5.40;;;;;;;21.74;50.06;97828.78;5024211;28;20025;-77
2021/07/21 07:12:29;;;;;;;7.30;4.95;;;;;;;22.16;49.31;97825.97;5030270;28;20426;-77
2021/07/21 07:14:54;;;;;;;5.40;4.90;;;;;;;22.10;49.29;97827.94;5047572;28;20029;-77
2021/07/21 07:17:20;;;;;;;9.65;5.22;;;;;;;22.16;49.32;97826.72;5021084;28;20029;-78
2021/07/21 07:19:46;;;;;;;8.02;5.20;;;;;;;22.15;48.72;97824.38;5047615;28;20505;-78
2021/07/21 07:22:12;;;;;;;7.07;5.05;;;;;;;22.21;48.17;97834.56;5047654;28;20100;-78
2021/07/21 07:24:39;;;;;;;6.32;4.82;;;;;;;22.22;48.46;97833.47;5047170;28;20075;-78
2021/07/21 07:27:04;;;;;;;6.88;5.55;;;;;;;22.15;49.11;97833.13;5047749;28;20533;-77
2021/07/21 07:29:30;;;;;;;7.00;5.10;;;;;;;22.69;48.24;97830.44;5023906;28;20283;-77
2021/07/21 07:31:56;;;;;;;6.07;5.28;;;;;;;22.65;47.81;97824.16;4995790;28;20033;-78
2021/07/21 07:34:21;;;;;;;7.90;5.13;;;;;;;22.68;47.91;97820.13;5026896;28;20111;-77
2021/07/21 07:36:47;;;;;;;6.45;4.85;;;;;;;22.97;47.62;97825.66;5040424;28;20476;-78
2021/07/21 07:39:13;;;;;;;7.90;5.40;;;;;;;23.03;46.47;97820.19;5030793;28;20091;-77
2021/07/21 07:41:39;;;;;;;8.60;5.90;;;;;;;22.89;47.28;97823.75;5015228;28;20024;-77
2021/07/21 07:44:07;;;;;;;6.18;5.05;;;;;;;23.25;46.61;97814.78;5033267;28;20033;-77
2021/07/21 07:46:33;;;;;;;6.18;4.90;;;;;;;23.50;46.59;97817.78;5033446;28;20033;-77
2021/07/21 07:49:01;;;;;;;8.32;5.15;;;;;;;23.95;46.12;97814.00;5049389;28;20087;-77
2021/07/21 07:51:29;;;;;;;5.32;4.80;;;;;;;23.97;45.18;97825.09;5010586;28;20037;-77
2021/07/21 07:53:57;;;;;;;6.97;5.53;;;;;;;24.31;45.60;97824.22;5031891;28;20061;-77
2021/07/21 07:56:23;;;;;;;5.72;4.95;;;;;;;24.49;44.90;97817.75;5010469;28;20084;-76
2021/07/21 07:58:48;;;;;;;6.82;6.00;;;;;;;24.28;44.13;97825.66;5025542;28;20030;-77
2021/07/21 08:01:13;;;;;;;7.50;5.50;;;;;;;24.28;44.71;97814.22;5029837;28;20056;-77
2021/07/21 08:03:39;;;;;;;6.53;5.47;;;;;;;24.34;44.33;97820.94;5015209;28;20117;-76
2021/07/21 08:06:04;;;;;;;7.88;4.95;;;;;;;24.37;45.00;97812.31;5033365;28;20106;-76
2021/07/21 08:08:30;;;;;;;6.18;5.32;;;;;;;24.81;44.52;97815.59;5028015;28;20032;-76
2021/07/21 08:10:55;;;;;;;8.80;5.47;;;;;;;25.04;43.67;97813.41;5011792;28;20036;-77
2021/07/21 08:13:22;;;;;;;6.57;5.53;;;;;;;24.93;43.02;97820.19;5043408;28;20021;-77
2021/07/21 08:15:48;;;;;;;5.90;5.28;;;;;;;24.83;42.75;97818.72;5033427;28;20056;-77
2021/07/21 08:18:14;;;;;;;5.68;4.90;;;;;;;25.16;42.80;97828.69;5033717;28;20055;-77
2021/07/21 08:20:41;;;;;;;7.20;5.18;;;;;;;25.27;42.89;97836.31;5010191;28;20232;-77
2021/07/21 08:23:06;;;;;;;7.15;5.25;;;;;;;25.63;41.70;97824.28;5025690;28;20029;-77
2021/07/21 08:25:32;;;;;;;6.40;4.93;;;;;;;25.74;41.27;97828.13;5046516;28;20408;-77
2021/07/21 08:27:57;;;;;;;8.35;5.15;;;;;;;25.67;40.91;97822.50;5035703;28;20040;-77
2021/07/21 08:30:23;;;;;;;6.95;5.38;;;;;;;25.55;41.14;97817.91;5006111;28;20404;-76
2021/07/21 08:32:52;;;;;;;6.28;4.72;;;;;;;25.79;41.17;97814.56;5040278;28;20049;-76
2021/07/21 08:35:19;;;;;;;5.50;5.00;;;;;;;25.93;40.66;97812.38;5033431;28;20030;-77
2021/07/21 08:37:45;;;;;;;6.47;5.75;;;;;;;26.00;39.93;97819.88;5006346;28;20037;-77
2021/07/21 08:40:12;;;;;;;5.85;5.13;;;;;;;25.84;40.31;97819.72;5023800;28;20036;-77
2021/07/21 08:42:40;;;;;;;7.70;5.05;;;;;;;26.20;40.56;97820.13;5015893;28;20055;-77
2021/07/21 08:45:07;;;;;;;6.13;4.95;;;;;;;26.13;40.19;97816.13;5023218;28;20026;-77
2021/07/21 08:47:33;;;;;;;8.00;5.28;;;;;;;26.50;38.93;97810.06;5064792;28;20036;-77
2021/07/21 08:49:58;;;;;;;7.13;5.38;;;;;;;26.71;38.38;97805.38;5023935;28;20029;-77
2021/07/21 08:52:24;;;;;;;5.78;5.05;;;;;;;26.89;38.55;97813.19;5048352;28;20078;-76
2021/07/21 08:54:51;;;;;;;8.95;5.07;;;;;;;26.89;38.78;97819.31;5039307;28;20106;-76
2021/07/21 08:57:18;;;;;;;6.30;4.75;;;;;;;27.18;39.14;97820.16;5012875;28;20507;-77
2021/07/21 08:59:45;;;;;;;7.22;5.25;;;;;;;27.44;37.74;97825.09;5006522;28;20115;-77
2021/07/21 09:02:12;;;;;;;7.20;5.63;;;;;;;27.68;38.43;97812.00;5014006;28;20032;-76
2021/07/21 09:04:39;;;;;;;5.95;5.35;;;;;;;28.17;37.58;97815.22;5020851;28;20476;-77
2021/07/21 09:07:06;;;;;;;5.93;5.32;;;;;;;27.77;36.13;97823.31;5043857;28;20048;-77
2021/07/21 09:09:32;;;;;;;5.80;5.18;;;;;;;26.93;36.22;97813.28;5042293;28;20427;-77
2021/07/21 09:11:57;;;;;;;6.63;5.35;;;;;;;27.24;36.35;97818.00;5026609;28;20031;-77
2021/07/21 09:14:24;;;;;;;5.60;5.10;;;;;;;27.77;35.04;97816.06;5027508;28;20064;-77
2021/07/21 09:17:15;;;;;;;6.60;5.57;;;;;;;27.88;36.24;97813.69;5020845;28;20036;-76
2021/07/21 09:19:43;;;;;;;7.15;5.28;;;;;;;28.15;36.64;97825.47;5032025;28;20099;-77
2021/07/21 09:22:21;;;;;;;8.13;5.50;;;;;;;28.36;35.84;97821.75;5047147;28;20221;-76
2021/07/21 09:25:13;;;;;;;5.47;4.70;;;;;;;28.04;35.88;97827.09;5018036;28;20035;-77
2021/07/21 09:27:44;;;;;;;6.72;5.82;;;;;;;28.46;35.63;97815.88;5047787;28;20456;-76
2021/07/21 09:30:12;;;;;;;7.55;5.30;;;;;;;28.82;35.44;97821.31;5003837;28;20131;-76
2021/07/21 09:33:09;;;;;;;6.25;5.20;;;;;;;28.13;34.76;97817.00;5046737;28;20032;-77
2021/07/21 09:35:48;;;;;;;6.38;5.38;;;;;;;28.33;34.97;97817.13;5013346;28;20043;-77
2021/07/21 09:38:16;;;;;;;5.95;5.35;;;;;;;28.68;33.57;97811.81;5048152;28;20036;-76
2021/07/21 09:40:44;;;;;;;5.80;5.30;;;;;;;28.61;34.55;97822.38;5063458;28;20458;-77
2021/07/21 09:43:12;;;;;;;6.07;5.47;;;;;;;28.58;34.08;97823.06;5047179;28;20117;-77
2021/07/21 09:45:38;;;;;;;7.05;5.18;;;;;;;28.94;36.07;97813.16;5048456;28;20518;-76
2021/07/21 09:48:04;;;;;;;6.22;5.60;;;;;;;29.30;34.47;97819.28;5023757;28;20041;-77
2021/07/21 09:50:30;;;;;;;7.57;5.57;;;;;;;29.85;34.72;97822.69;5045741;28;20098;-77
2021/07/21 09:53:04;;;;;;;7.20;5.72;;;;;;;29.49;32.28;97831.94;5037513;28;20477;-77
2021/07/21 09:55:32;;;;;;;8.23;5.90;;;;;;;28.71;33.75;97821.09;5047649;28;20131;-77
2021/07/21 09:58:08;;;;;;;7.32;6.03;;;;;;;28.27;34.02;97821.16;5030524;28;20037;-76
2021/07/21 10:00:36;;;;;;;11.23;6.35;;;;;;;28.64;34.67;97823.59;5045501;28;20527;-76
2021/07/21 10:03:19;;;;;;;6.38;5.78;;;;;;;29.13;33.56;97828.50;5046272;28;20541;-76
2021/07/21 10:06:07;;;;;;;6.60;6.00;;;;;;;29.65;31.17;97819.22;5029970;28;20414;-75
2021/07/21 10:08:34;;;;;;;6.13;5.53;;;;;;;29.67;32.80;97822.31;5021521;28;20034;-77
2021/07/21 10:11:19;;;;;;;5.90;5.32;;;;;;;29.46;33.74;97825.38;5014995;28;20137;-76
2021/07/21 10:13:44;;;;;;;7.30;6.47;;;;;;;29.65;33.41;97819.22;5025207;28;20506;-76
2021/07/21 10:16:09;;;;;;;5.95;5.25;;;;;;;29.74;32.22;97828.97;5027130;28;20033;-77
2021/07/21 10:18:37;;;;;;;6.97;6.07;;;;;;;29.37;32.30;97834.75;5048141;28;20116;-77
2021/07/21 10:21:03;;;;;;;6.50;5.90;;;;;;;29.37;32.50;97824.78;5045817;28;20522;-76
2021/07/21 10:23:28;;;;;;;8.25;5.30;;;;;;;29.45;32.66;97826.50;5021426;28;20064;-76
2021/07/21 10:25:53;;;;;;;6.43;5.50;;;;;;;29.08;33.00;97823.41;5047194;28;20113;-76
2021/07/21 10:28:19;;;;;;;6.53;5.55;;;;;;;28.70;34.65;97825.69;5024132;28;20033;-76
2021/07/21 10:30:44;;;;;;;7.95;6.00;;;;;;;28.12;34.45;97830.72;5000792;28;20037;-76
2021/07/21 10:33:11;;;;;;;6.82;6.03;;;;;;;28.77;33.89;97831.19;5020333;28;20037;-76
2021/07/21 10:35:37;;;;;;;6.13;5.50;;;;;;;29.43;32.70;97822.63;5024706;28;20381;-76
2021/07/21 10:38:03;;;;;;;6.28;5.68;;;;;;;29.16;32.76;97818.97;5029042;28;20060;-76
2021/07/21 10:40:32;;;;;;;7.07;6.00;;;;;;;29.14;32.64;97827.38;5045626;28;20073;-77
2021/07/21 10:42:59;;;;;;;6.13;5.53;;;;;;;28.87;31.28;97818.38;5023689;28;20036;-76
2021/07/21 10:45:28;;;;;;;6.50;5.22;;;;;;;29.35;32.76;97821.69;5039496;28;20305;-76
2021/07/21 10:47:58;;;;;;;6.50;5.78;;;;;;;29.45;32.31;97821.13;5027755;28;20041;-76
2021/07/21 10:53:45;;;;;;;5.88;5.35;;;;;;;30.48;32.40;97811.84;5045357;28;20306;-76
2021/07/21 10:59:14;;;;;;;6.38;5.70;;;;;;;29.75;32.74;97817.88;5047596;28;20072;-77
2021/07/21 11:01:58;;;;;;;6.63;5.95;;;;;;;30.36;30.67;97812.81;5044864;28;20067;-76
2021/07/21 11:04:41;;;;;;;6.25;5.68;;;;;;;30.87;30.34;97806.28;5028308;28;20029;-76
2021/07/21 11:07:06;;;;;;;5.82;5.25;;;;;;;30.75;30.28;97799.97;5058331;28;20087;-76
2021/07/21 11:09:34;;;;;;;5.82;5.20;;;;;;;29.63;31.17;97804.59;5043591;28;20384;-77
2021/07/21 11:12:00;;;;;;;6.20;4.95;;;;;;;28.61;33.16;97808.22;5027805;28;20028;-76
2021/07/21 11:14:32;;;;;;;6.20;5.05;;;;;;;28.34;34.21;97807.94;5026490;28;20037;-77
2021/07/21 11:17:07;;;;;;;7.07;5.43;;;;;;;28.48;34.87;97810.97;5027308;28;20067;-76
2021/07/21 11:19:44;;;;;;;6.70;5.57;;;;;;;28.65;33.71;97793.00;5048280;28;20048;-76
2021/07/21 11:22:18;;;;;;;6.93;5.80;;;;;;;28.81;33.50;97803.69;5048590;28;20108;-76
2021/07/21 11:25:15;;;;;;;7.15;5.47;;;;;;;29.15;32.08;97796.75;5043508;28;20033;-77
2021/07/21 11:27:49;;;;;;;7.78;5.25;;;;;;;29.03;34.39;97794.19;5033170;28;20495;-76
2021/07/21 11:31:06;;;;;;;6.18;5.07;;;;;;;28.81;33.98;97799.09;5047672;28;20117;-77
2021/07/21 11:33:50;;;;;;;6.45;5.20;;;;;;;28.74;32.21;97788.22;4988447;28;20049;-77
2021/07/21 11:36:43;;;;;;;6.00;5.40;;;;;;;28.52;33.47;97789.63;5033306;28;20041;-77
2021/07/21 11:39:35;;;;;;;5.90;5.28;;;;;;;28.28;33.55;97790.59;5043803;28;20106;-76
2021/07/21 11:42:04;;;;;;;5.75;5.13;;;;;;;28.69;32.52;97788.50;5028237;28;20118;-76